Nearby METAR Reports

 

GCLP - Las Palmas/Gando, Spain
Distance from station: NE 26km
Updated: 05/12/2020 01:30
Partly cloudy
Partly cloudy
 Wind from N
Wind: N 15 km/h
Temperature: 18°C
Dew Point: 14°C
Humidity: 78%
Barometer: 1018 hPa
Clouds: Partly cloudy
Visibility: 10 km
Cloud details: Few Clouds 853 m
Partly cloudy 1158 m
2020/12/05 01:30 GCLP 050130Z 35008KT 9999 FEW028 SCT038 18/14 Q1018 NOSIG
GCTS - Tenerife Sur/Rei, Spain
Distance from station: WNW 102km
Updated: 05/12/2020 01:30
Mostly cloudy
Mostly cloudy
 Wind from NW
Wind: NW 13 km/h
Temperature: 18°C
Dew Point: 15°C
Humidity: 83%
Barometer: 1019 hPa
Clouds: Mostly cloudy
Visibility: 10 km
Cloud details: Partly cloudy 1097 m
Mostly cloudy 1524 m
2020/12/05 01:30 GCTS 050130Z 31007KT 9999 SCT036 BKN050 18/15 Q1019 NOSIG
 
GCXO - Tenerife/Los Rod, Spain
Distance from station: NW 110km
Updated: 05/12/2020 01:30
Light rain, Overcast
Light rain, Overcast
 Wind from NW
Wind: NW 20 km/h
Temperature: 14°C
Dew Point: 13°C
Humidity: 94%
Barometer: 1020 hPa
Summary: Light rain
Clouds: Overcast
Visibility: 6 km
Cloud details: Overcast 61 m
2020/12/05 01:30 GCXO 050130Z AUTO 31011KT 290V350 6000 1400SE -RA VV002 14/13 Q1020
GCGM - La Gomera Arpt, Spain
Distance from station: W 164km
Updated: 05/12/2020 01:30
Clear
Clear
 Wind from NNW
Wind: NNW 9 km/h
Temperature: 18°C
Dew Point: 13°C
Humidity: 73%
Barometer: 1019 hPa
Summary: Clear
Visibility: greater than 10 km
2020/12/05 01:30 GCGM 050130Z AUTO 33005KT 300V020 CAVOK 18/13 Q1019 RMK R09/31005KT 270V350 ARP/34006KT
 
GCFV - Fuerteventura Ar, Spain
Distance from station: ENE 183km
Updated: 05/12/2020 01:30
Clear
Clear
 Wind from NNW
Wind: NNW 15 km/h
Temperature: 18°C
Dew Point: 12°C
Humidity: 68%
Barometer: 1018 hPa
Summary: Clear
Visibility: greater than 10 km
2020/12/05 01:30 GCFV 050130Z AUTO 34008KT CAVOK 18/12 Q1018
GCHI - Hierro Airport, Spain
Distance from station: W 226km
Updated: 05/12/2020 01:30
Mostly cloudy
Mostly cloudy
 Wind from NNE
Wind: NNE 26 km/h
Temperature: 20°C
Dew Point: 15°C
Humidity: 73%
Barometer: 1019 hPa
Clouds: Mostly cloudy
Visibility: 10 km
Cloud details: Partly cloudy 762 m
Mostly cloudy 1311 m
Mostly cloudy 1524 m
2020/12/05 01:30 GCHI 050130Z AUTO 03014KT 360V060 9999 SCT025 BKN043 BKN050 20/15 Q1019
 
GCLA - La Palma Airport, Spain
Distance from station: WNW 233km
Updated: 05/12/2020 01:30
Clear
Clear
 Wind from varies
Wind: varies 11 km/h
Temperature: 18°C
Dew Point: 13°C
Humidity: 73%
Barometer: 1020 hPa
Summary: Clear
Visibility: greater than 10 km
2020/12/05 01:30 GCLA 050130Z AUTO VRB06KT CAVOK 18/13 Q1020
GCRR - Arrecife/Lanzaro, Spain
Distance from station: NE 234km
Updated: 05/12/2020 01:30
Clear
Clear
 Wind from NNW
Wind: NNW 15 km/h
Temperature: 18°C
Dew Point: 11°C
Humidity: 64%
Barometer: 1017 hPa
Summary: Clear
Visibility: greater than 10 km
2020/12/05 01:30 GCRR 050130Z AUTO 33008KT 280V360 CAVOK 18/11 Q1017
 
LPMA - Funchal/Madeira, Portugal
Distance from station: NNW 556km
Updated: 05/12/2020 01:30
Partly cloudy
Partly cloudy
 Wind from varies
Wind: varies 11 km/h
Temperature: 15°C
Dew Point: 11°C
Humidity: 77%
Barometer: 1020 hPa
Clouds: Partly cloudy
Visibility: 10 km
Cloud details: Partly cloudy 457 m
2020/12/05 01:30 LPMA 050130Z VRB06KT 9999 SCT015 15/11 Q1020
LPPS - Porto Santo Isla, Portugal
Distance from station: N 594km
Updated: 05/12/2020 01:30
Mostly cloudy
Mostly cloudy
 Wind from NNW
Wind: NNW 30 km/h
Temperature: 15°C
Dew Point: 9°C
Humidity: 68%
Barometer: 1019 hPa
Clouds: Mostly cloudy
Visibility: 10 km
Cloud details: Partly cloudy 427 m
Mostly cloudy 914 m
2020/12/05 01:30 LPPS 050130Z 34016KT 9999 SCT014 BKN030 15/09 Q1019